Time;durP1;ratioP1;P1;durP2;ratioP2;P2;SDS_P1;SDS_P2;PMS_P1;PMS_P2;Temp;Humidity;BMP_temperature;BMP_pressure;BME280_temperature;BME280_humidity;BME280_pressure;Samples;Min_cycle;Max_cycle;Signal;HPM_P1;HPM_P2
2024/02/04 00:01:27;;;;;;;1.37;1.00;;;8.60;99.90;;;;;;4403971;32;20482;-75
2024/02/04 00:03:52;;;;;;;1.17;0.95;;;8.60;99.90;;;;;;4403750;32;20098;-75
2024/02/04 00:06:18;;;;;;;1.73;1.15;;;8.60;99.90;;;;;;4404766;32;20084;-76
2024/02/04 00:08:43;;;;;;;0.37;0.37;;;8.60;99.90;;;;;;4402848;32;20141;-78
2024/02/04 00:11:11;;;;;;;0.50;0.50;;;8.50;99.90;;;;;;4404066;32;20093;-78
2024/02/04 00:13:38;;;;;;;1.25;0.95;;;8.50;99.90;;;;;;4404409;32;20151;-78
2024/02/04 00:16:05;;;;;;;2.45;1.25;;;8.40;99.90;;;;;;4401423;32;20541;-79
2024/02/04 00:18:30;;;;;;;4.35;1.45;;;8.40;99.90;;;;;;4404598;32;20128;-78
2024/02/04 00:20:56;;;;;;;0.50;0.50;;;8.30;99.90;;;;;;4405813;32;20135;-78
2024/02/04 00:23:21;;;;;;;0.57;0.45;;;8.30;99.90;;;;;;4405710;32;20069;-77
2024/02/04 00:25:47;;;;;;;2.25;0.82;;;8.30;99.90;;;;;;4403268;32;20110;-77
2024/02/04 00:28:12;;;;;;;0.88;0.88;;;8.30;99.90;;;;;;4400934;32;20773;-77
2024/02/04 00:30:38;;;;;;;1.55;0.65;;;8.20;99.90;;;;;;4405109;32;20538;-77
2024/02/04 00:33:05;;;;;;;2.12;1.02;;;8.20;99.90;;;;;;4404164;32;20148;-78
2024/02/04 00:35:30;;;;;;;4.78;1.50;;;8.10;99.90;;;;;;4405982;32;20086;-78
2024/02/04 00:37:56;;;;;;;0.50;0.50;;;8.10;99.90;;;;;;4401872;32;20426;-78
2024/02/04 00:40:22;;;;;;;0.30;0.30;;;8.10;99.90;;;;;;4403106;32;20065;-78
2024/02/04 00:42:48;;;;;;;0.30;0.30;;;8.10;99.90;;;;;;4401499;32;20220;-78
2024/02/04 00:45:13;;;;;;;0.50;0.50;;;8.10;99.90;;;;;;4401015;32;20082;-78
2024/02/04 00:47:39;;;;;;;5.30;0.60;;;8.10;99.90;;;;;;4404408;32;20481;-77
2024/02/04 00:50:05;;;;;;;0.37;0.37;;;8.10;99.90;;;;;;4407200;32;20061;-78
2024/02/04 00:52:30;;;;;;;0.50;0.50;;;8.00;99.90;;;;;;4405015;32;20117;-78
2024/02/04 00:54:56;;;;;;;17.90;1.87;;;8.00;99.90;;;;;;4408016;32;20081;-79
2024/02/04 00:57:21;;;;;;;0.98;0.50;;;8.00;99.90;;;;;;4406862;32;21133;-75
2024/02/04 00:59:47;;;;;;;0.30;0.30;;;7.90;99.90;;;;;;4404834;32;20078;-79
2024/02/04 01:02:12;;;;;;;0.40;0.40;;;7.90;99.90;;;;;;4404078;32;20082;-78
2024/02/04 01:04:38;;;;;;;0.45;0.45;;;7.80;99.90;;;;;;4407370;32;20061;-77
2024/02/04 01:07:04;;;;;;;5.87;1.23;;;7.80;99.90;;;;;;4403283;32;20073;-77
2024/02/04 01:09:30;;;;;;;1.80;0.93;;;7.70;99.90;;;;;;4403635;32;20086;-78
2024/02/04 01:11:56;;;;;;;0.30;0.30;;;7.80;99.90;;;;;;4402415;32;20089;-77
2024/02/04 01:14:22;;;;;;;2.50;1.30;;;7.80;99.90;;;;;;4404376;32;20359;-79
2024/02/04 01:16:47;;;;;;;0.50;0.50;;;7.80;99.90;;;;;;4406834;32;20228;-78
2024/02/04 01:19:13;;;;;;;0.37;0.37;;;7.70;99.90;;;;;;4403673;32;20085;-75
2024/02/04 01:21:38;;;;;;;0.30;0.30;;;7.70;99.90;;;;;;4408439;32;20093;-75
2024/02/04 01:24:04;;;;;;;0.30;0.30;;;7.70;99.90;;;;;;4408063;32;20351;-73
2024/02/04 01:26:30;;;;;;;0.30;0.30;;;7.70;99.90;;;;;;4403691;32;20171;-75
2024/02/04 01:28:55;;;;;;;0.62;0.62;;;7.60;99.90;;;;;;4400970;32;20526;-74
2024/02/04 01:31:21;;;;;;;0.30;0.30;;;7.50;99.90;;;;;;4401452;32;20576;-75
2024/02/04 01:33:46;;;;;;;0.35;0.35;;;7.50;99.90;;;;;;4402233;32;20086;-75
2024/02/04 01:36:12;;;;;;;0.50;0.50;;;7.40;99.90;;;;;;4405873;32;20106;-75
2024/02/04 01:38:38;;;;;;;0.40;0.40;;;7.50;99.90;;;;;;4402165;32;20094;-76
2024/02/04 01:41:04;;;;;;;0.30;0.30;;;7.50;99.90;;;;;;4403286;32;20086;-74
2024/02/04 01:43:31;;;;;;;0.50;0.50;;;7.40;99.90;;;;;;4403461;32;20089;-73
2024/02/04 01:45:56;;;;;;;0.57;0.57;;;7.40;99.90;;;;;;4408231;32;20124;-75
2024/02/04 01:48:22;;;;;;;0.28;0.28;;;7.30;99.90;;;;;;4401893;32;20128;-75
2024/02/04 01:50:51;;;;;;;0.32;0.32;;;7.40;99.90;;;;;;4403744;32;20124;-74
2024/02/04 01:53:20;;;;;;;0.37;0.37;;;7.30;99.90;;;;;;4408971;32;20077;-76
2024/02/04 01:55:45;;;;;;;0.35;0.35;;;7.30;99.90;;;;;;4403439;32;21064;-74
2024/02/04 01:58:11;;;;;;;0.30;0.30;;;7.30;99.90;;;;;;4402482;32;20121;-77
2024/02/04 02:00:37;;;;;;;0.50;0.50;;;7.30;99.90;;;;;;4404326;32;20082;-74
2024/02/04 02:03:05;;;;;;;0.40;0.40;;;7.30;99.90;;;;;;4402370;32;20073;-74
2024/02/04 02:05:32;;;;;;;1.20;0.40;;;7.40;99.90;;;;;;4402346;32;20514;-74
2024/02/04 02:07:57;;;;;;;0.57;0.47;;;7.30;99.90;;;;;;4401572;32;20082;-75
2024/02/04 02:10:24;;;;;;;0.30;0.30;;;7.40;99.90;;;;;;4405207;32;20310;-74
2024/02/04 02:13:00;;;;;;;2.85;1.55;;;7.30;99.90;;;;;;4401913;32;20081;-77
2024/02/04 02:15:32;;;;;;;0.52;0.52;;;7.30;99.90;;;;;;4402927;32;20073;-74
2024/02/04 02:18:01;;;;;;;0.70;0.70;;;7.20;99.90;;;;;;4406736;32;20500;-74
2024/02/04 02:20:55;;;;;;;10.27;1.73;;;7.30;99.90;;;;;;4404083;32;20198;-74
2024/02/04 02:23:27;;;;;;;0.40;0.40;;;7.20;99.90;;;;;;4394628;32;20077;-76
2024/02/04 02:25:53;;;;;;;0.40;0.40;;;7.20;99.90;;;;;;4407505;32;20081;-74
2024/02/04 02:28:18;;;;;;;0.40;0.40;;;7.20;99.90;;;;;;4404717;32;20082;-78
2024/02/04 02:30:44;;;;;;;0.30;0.30;;;7.20;99.90;;;;;;4404984;32;20085;-78
2024/02/04 02:33:09;;;;;;;6.82;1.70;;;7.20;99.90;;;;;;4401786;32;20061;-78
2024/02/04 02:35:35;;;;;;;0.70;0.65;;;7.20;99.90;;;;;;4406216;32;20089;-76
2024/02/04 02:38:25;;;;;;;0.32;0.32;;;7.10;99.90;;;;;;4398921;32;20083;-76
2024/02/04 02:40:58;;;;;;;0.40;0.40;;;7.10;99.90;;;;;;4389597;32;20061;-76
2024/02/04 02:43:25;;;;;;;0.30;0.30;;;7.00;99.90;;;;;;4400241;32;20069;-78
2024/02/04 02:45:50;;;;;;;1.20;0.85;;;7.00;99.90;;;;;;4400836;32;20144;-76
2024/02/04 02:48:16;;;;;;;0.30;0.30;;;7.00;99.90;;;;;;4405982;32;20176;-75
2024/02/04 02:50:42;;;;;;;0.50;0.50;;;7.00;99.90;;;;;;4408842;32;20094;-76
2024/02/04 02:53:07;;;;;;;4.22;1.27;;;7.00;99.90;;;;;;4406112;32;20073;-76
2024/02/04 02:55:32;;;;;;;0.88;0.82;;;7.00;99.90;;;;;;4404468;32;20614;-75
2024/02/04 02:57:58;;;;;;;0.30;0.30;;;7.00;99.90;;;;;;4404065;32;20152;-78
2024/02/04 03:00:23;;;;;;;7.82;2.95;;;7.00;99.90;;;;;;4405925;32;20422;-76
2024/02/04 03:02:49;;;;;;;0.40;0.40;;;7.00;99.90;;;;;;4405732;32;20077;-76
2024/02/04 03:05:16;;;;;;;0.40;0.40;;;7.00;99.90;;;;;;4404671;32;20599;-76
2024/02/04 03:07:41;;;;;;;5.85;0.70;;;7.00;99.90;;;;;;4402931;32;20093;-76
2024/02/04 03:10:08;;;;;;;2.60;1.05;;;7.00;99.90;;;;;;4405585;32;20465;-76
2024/02/04 03:12:34;;;;;;;1.75;0.95;;;7.00;99.90;;;;;;4403421;32;20140;-76
2024/02/04 03:14:59;;;;;;;0.30;0.30;;;7.10;99.90;;;;;;4402177;32;20521;-75
2024/02/04 03:17:25;;;;;;;0.30;0.30;;;7.10;99.90;;;;;;4406332;32;20062;-76
2024/02/04 03:19:54;;;;;;;3.03;0.85;;;7.10;99.90;;;;;;4405328;32;20124;-77
2024/02/04 03:22:21;;;;;;;0.30;0.30;;;7.10;99.90;;;;;;4406440;32;20069;-77
2024/02/04 03:24:47;;;;;;;0.40;0.40;;;7.20;99.90;;;;;;4405662;32;20070;-78
2024/02/04 03:27:12;;;;;;;2.58;1.17;;;7.20;99.90;;;;;;4403527;32;20652;-78
2024/02/04 03:29:38;;;;;;;0.30;0.30;;;7.30;99.90;;;;;;4404671;32;20101;-77
2024/02/04 03:32:03;;;;;;;0.30;0.30;;;7.30;99.90;;;;;;4401181;32;20077;-77
2024/02/04 03:34:29;;;;;;;0.30;0.30;;;7.30;99.90;;;;;;4403044;32;20447;-76
2024/02/04 03:36:55;;;;;;;0.68;0.62;;;7.30;99.90;;;;;;4400207;32;20081;-77
2024/02/04 03:39:20;;;;;;;0.60;0.60;;;7.30;99.90;;;;;;4402161;32;20089;-77
2024/02/04 03:41:45;;;;;;;0.68;0.60;;;7.30;99.90;;;;;;4402817;32;20081;-78
2024/02/04 03:44:11;;;;;;;13.80;2.03;;;7.30;99.90;;;;;;4402739;32;20070;-79
2024/02/04 03:46:39;;;;;;;0.20;0.20;;;7.30;99.90;;;;;;4403102;32;20082;-78
2024/02/04 03:49:06;;;;;;;0.37;0.37;;;7.30;99.90;;;;;;4398856;32;20125;-79
2024/02/04 03:51:31;;;;;;;0.28;0.28;;;7.30;99.90;;;;;;4404494;32;20070;-78
2024/02/04 03:53:57;;;;;;;0.30;0.30;;;7.30;99.90;;;;;;4401161;32;20078;-79
2024/02/04 03:56:22;;;;;;;2.78;0.70;;;7.30;99.90;;;;;;4401895;32;20086;-78
2024/02/04 03:58:48;;;;;;;0.30;0.30;;;7.30;99.90;;;;;;4403663;32;20066;-77
2024/02/04 04:01:14;;;;;;;0.68;0.65;;;7.30;99.90;;;;;;4402596;32;20094;-77
2024/02/04 04:03:40;;;;;;;0.30;0.30;;;7.30;99.90;;;;;;4399027;32;20140;-78
2024/02/04 04:06:06;;;;;;;0.50;0.50;;;7.20;99.90;;;;;;4397478;32;20542;-76
2024/02/04 04:08:31;;;;;;;4.03;1.37;;;7.20;99.90;;;;;;4399416;32;20101;-77
2024/02/04 04:10:57;;;;;;;0.32;0.32;;;7.20;99.90;;;;;;4400125;32;21132;-78
2024/02/04 04:13:22;;;;;;;1.50;0.98;;;7.10;99.90;;;;;;4400138;32;20464;-77
2024/02/04 04:15:48;;;;;;;0.30;0.30;;;7.10;99.90;;;;;;4400580;32;20070;-78
2024/02/04 04:18:13;;;;;;;0.52;0.52;;;7.10;99.90;;;;;;4404997;32;20212;-79
2024/02/04 04:20:40;;;;;;;0.30;0.30;;;7.10;99.90;;;;;;4408791;32;20113;-79
2024/02/04 04:23:05;;;;;;;0.30;0.30;;;7.10;99.90;;;;;;4404260;32;20090;-77
2024/02/04 04:25:31;;;;;;;0.30;0.30;;;7.00;99.90;;;;;;4400827;32;20078;-78
2024/02/04 04:27:58;;;;;;;7.50;2.15;;;7.00;99.90;;;;;;4400728;32;20074;-78
2024/02/04 04:30:23;;;;;;;0.22;0.22;;;7.00;99.90;;;;;;4402457;32;20129;-75
2024/02/04 04:32:49;;;;;;;0.50;0.50;;;6.90;99.90;;;;;;4401481;32;20062;-74
2024/02/04 04:35:14;;;;;;;8.98;1.10;;;6.90;99.90;;;;;;4402534;32;20090;-73
2024/02/04 04:37:40;;;;;;;1.10;0.57;;;6.80;99.90;;;;;;4401918;32;20201;-74
2024/02/04 04:40:06;;;;;;;2.17;1.30;;;6.80;99.90;;;;;;4400922;32;20452;-74
2024/02/04 04:42:31;;;;;;;0.90;0.62;;;6.70;99.90;;;;;;4405058;32;20424;-74
2024/02/04 04:44:57;;;;;;;1.50;1.40;;;6.70;99.90;;;;;;4400721;32;20185;-75
2024/02/04 04:47:23;;;;;;;0.30;0.30;;;6.80;99.90;;;;;;4399761;32;20422;-74
2024/02/04 04:49:49;;;;;;;0.55;0.55;;;6.70;99.90;;;;;;4401700;32;20082;-76
2024/02/04 04:52:15;;;;;;;1.48;0.85;;;6.70;99.90;;;;;;4403341;32;20086;-76
2024/02/04 04:54:40;;;;;;;1.45;0.55;;;6.70;99.90;;;;;;4404126;32;20094;-76
2024/02/04 04:57:06;;;;;;;0.90;0.43;;;6.70;99.90;;;;;;4405304;32;20089;-75
2024/02/04 04:59:31;;;;;;;0.40;0.40;;;6.70;99.90;;;;;;4402278;32;20128;-76
2024/02/04 05:01:57;;;;;;;1.45;0.88;;;6.70;99.90;;;;;;4403254;32;20077;-75
2024/02/04 05:04:25;;;;;;;0.28;0.28;;;6.60;99.90;;;;;;4404930;32;20148;-76
2024/02/04 05:06:50;;;;;;;0.30;0.30;;;6.70;99.90;;;;;;4406555;32;20375;-74
2024/02/04 05:09:17;;;;;;;0.30;0.30;;;6.60;99.90;;;;;;4408609;32;20256;-75
2024/02/04 05:11:43;;;;;;;0.57;0.57;;;6.60;99.90;;;;;;4401525;32;20541;-75
2024/02/04 05:14:09;;;;;;;0.30;0.30;;;6.60;99.90;;;;;;4406974;32;20062;-74
2024/02/04 05:16:35;;;;;;;4.53;0.68;;;6.60;99.90;;;;;;4405125;32;21660;-75
2024/02/04 05:19:01;;;;;;;44.22;1.15;;;6.60;99.90;;;;;;4406260;32;20461;-77
2024/02/04 05:21:27;;;;;;;0.20;0.20;;;6.60;99.90;;;;;;4405672;32;20525;-75
2024/02/04 05:23:52;;;;;;;1.75;1.45;;;6.60;99.90;;;;;;4402934;32;20102;-74
2024/02/04 05:26:19;;;;;;;0.30;0.30;;;6.60;99.90;;;;;;4408038;32;20073;-75
2024/02/04 05:28:44;;;;;;;0.40;0.40;;;6.60;99.90;;;;;;4407661;32;20097;-75
2024/02/04 05:31:10;;;;;;;0.62;0.62;;;6.60;99.90;;;;;;4408631;32;20086;-77
2024/02/04 05:33:35;;;;;;;0.37;0.37;;;6.60;99.90;;;;;;4407936;32;20135;-76
2024/02/04 05:36:01;;;;;;;0.30;0.30;;;6.60;99.90;;;;;;4407538;32;20089;-75
2024/02/04 05:38:26;;;;;;;0.60;0.60;;;6.60;99.90;;;;;;4404279;32;20073;-75
2024/02/04 05:40:52;;;;;;;0.30;0.30;;;6.60;99.90;;;;;;4406475;32;20086;-75
2024/02/04 05:43:17;;;;;;;0.50;0.50;;;6.60;99.90;;;;;;4405851;32;20098;-77
2024/02/04 05:45:43;;;;;;;0.20;0.20;;;6.60;99.90;;;;;;4405309;32;20101;-76
2024/02/04 05:48:09;;;;;;;0.65;0.45;;;6.60;99.90;;;;;;4404724;32;20094;-76
2024/02/04 05:50:35;;;;;;;0.35;0.35;;;6.60;99.90;;;;;;4405967;32;20065;-77
2024/02/04 05:53:00;;;;;;;0.47;0.47;;;6.60;99.90;;;;;;4408475;32;20065;-76
2024/02/04 05:55:26;;;;;;;0.35;0.35;;;6.70;99.90;;;;;;4404040;32;20234;-75
2024/02/04 05:57:51;;;;;;;0.32;0.32;;;6.70;99.90;;;;;;4405695;32;20140;-77
2024/02/04 06:00:17;;;;;;;0.30;0.30;;;6.70;99.90;;;;;;4407366;32;20085;-75
2024/02/04 06:02:43;;;;;;;0.85;0.85;;;6.70;99.90;;;;;;4402027;32;20425;-74
2024/02/04 06:05:15;;;;;;;0.30;0.30;;;6.70;99.90;;;;;;4400270;32;20081;-75
2024/02/04 06:07:43;;;;;;;0.45;0.45;;;6.70;99.90;;;;;;4403195;32;20080;-75
2024/02/04 06:10:09;;;;;;;0.40;0.40;;;6.70;99.90;;;;;;4406923;32;20074;-73
2024/02/04 06:12:35;;;;;;;0.45;0.45;;;6.80;99.90;;;;;;4404441;32;20555;-74
2024/02/04 06:15:00;;;;;;;0.30;0.30;;;6.80;99.90;;;;;;4402197;32;20456;-76
2024/02/04 06:17:26;;;;;;;0.50;0.50;;;6.80;99.90;;;;;;4406398;32;20081;-74
2024/02/04 06:19:51;;;;;;;0.52;0.52;;;6.90;99.90;;;;;;4408565;32;20497;-75
2024/02/04 06:22:17;;;;;;;0.30;0.30;;;6.90;99.90;;;;;;4402990;32;20133;-74
2024/02/04 06:24:42;;;;;;;1.08;0.85;;;6.90;99.90;;;;;;4404728;32;20097;-74
2024/02/04 06:27:10;;;;;;;2.62;0.88;;;7.00;99.90;;;;;;4402236;32;20094;-75
2024/02/04 06:29:37;;;;;;;1.48;0.90;;;7.00;99.90;;;;;;4405915;32;20082;-74
2024/02/04 06:32:03;;;;;;;0.30;0.30;;;7.00;99.90;;;;;;4404342;32;20070;-74
2024/02/04 06:34:28;;;;;;;2.15;0.82;;;6.90;99.90;;;;;;4403170;32;20080;-74
2024/02/04 06:36:54;;;;;;;0.88;0.82;;;6.90;99.90;;;;;;4391374;32;20476;-74
2024/02/04 06:39:20;;;;;;;0.30;0.30;;;6.90;99.90;;;;;;4403640;32;20485;-73
2024/02/04 06:41:45;;;;;;;1.15;1.05;;;6.90;99.90;;;;;;4405080;32;20135;-76
2024/02/04 06:44:11;;;;;;;1.00;0.70;;;6.90;99.90;;;;;;4405434;32;20481;-74
2024/02/04 06:46:37;;;;;;;0.88;0.88;;;6.90;99.90;;;;;;4409729;32;20077;-74
2024/02/04 06:49:02;;;;;;;0.30;0.30;;;6.90;99.90;;;;;;4404155;32;21187;-74
2024/02/04 06:51:28;;;;;;;0.40;0.40;;;7.00;99.90;;;;;;4403471;32;20125;-78
2024/02/04 06:53:53;;;;;;;1.30;0.90;;;6.90;99.90;;;;;;4404231;32;20440;-78
2024/02/04 06:56:19;;;;;;;1.48;0.40;;;6.90;99.90;;;;;;4406927;32;20077;-77
2024/02/04 06:58:44;;;;;;;0.30;0.30;;;6.90;99.90;;;;;;4401534;32;20128;-78
2024/02/04 07:01:10;;;;;;;0.62;0.47;;;6.90;99.90;;;;;;4401725;32;20485;-77
2024/02/04 07:03:36;;;;;;;1.17;0.68;;;6.90;99.90;;;;;;4400674;32;20124;-77
2024/02/04 07:06:01;;;;;;;0.47;0.47;;;6.90;99.90;;;;;;4404303;32;21132;-78
2024/02/04 07:08:27;;;;;;;1.25;1.15;;;6.90;99.90;;;;;;4401132;32;20175;-76
2024/02/04 07:10:53;;;;;;;0.50;0.50;;;6.90;99.90;;;;;;4404650;32;20424;-76
2024/02/04 07:13:19;;;;;;;0.30;0.30;;;7.00;99.90;;;;;;4405345;32;20097;-75
2024/02/04 07:15:45;;;;;;;0.60;0.60;;;7.00;99.90;;;;;;4402846;32;20143;-73
2024/02/04 07:18:11;;;;;;;0.30;0.30;;;7.00;99.90;;;;;;4404979;32;20569;-74
2024/02/04 07:20:39;;;;;;;0.37;0.37;;;7.00;99.90;;;;;;4406705;32;20062;-75
2024/02/04 07:23:05;;;;;;;0.70;0.70;;;7.10;99.90;;;;;;4403688;32;20126;-74
2024/02/04 07:25:32;;;;;;;0.40;0.40;;;7.10;99.90;;;;;;4406760;32;20486;-76
2024/02/04 07:27:58;;;;;;;0.70;0.70;;;7.10;99.90;;;;;;4400939;32;20124;-75
2024/02/04 07:30:24;;;;;;;0.65;0.65;;;7.10;99.90;;;;;;4401270;32;20548;-74
2024/02/04 07:32:49;;;;;;;0.50;0.50;;;7.10;99.90;;;;;;4402966;32;20121;-76
2024/02/04 07:35:17;;;;;;;0.68;0.68;;;7.10;99.90;;;;;;4406207;32;20085;-74
2024/02/04 07:37:42;;;;;;;0.70;0.70;;;7.10;99.90;;;;;;4405931;32;20090;-74
2024/02/04 07:40:08;;;;;;;0.57;0.57;;;7.20;99.90;;;;;;4401574;32;20408;-75
2024/02/04 07:42:34;;;;;;;0.30;0.30;;;7.20;99.90;;;;;;4402902;32;20937;-75
2024/02/04 07:44:59;;;;;;;0.95;0.95;;;7.20;99.90;;;;;;4403609;32;20070;-75
2024/02/04 07:47:25;;;;;;;0.47;0.47;;;7.20;99.90;;;;;;4402868;32;20101;-76
2024/02/04 07:49:50;;;;;;;0.30;0.30;;;7.20;99.90;;;;;;4405574;32;20546;-76
2024/02/04 07:52:16;;;;;;;1.08;0.65;;;7.30;99.90;;;;;;4405272;32;20078;-75
2024/02/04 07:54:43;;;;;;;0.60;0.60;;;7.20;99.90;;;;;;4409122;32;20150;-74
2024/02/04 07:57:09;;;;;;;0.40;0.40;;;7.20;99.90;;;;;;4404218;32;20077;-75
2024/02/04 07:59:35;;;;;;;1.00;0.95;;;7.30;99.90;;;;;;4403211;32;20585;-75
2024/02/04 08:02:01;;;;;;;3.47;0.57;;;7.30;99.90;;;;;;4401898;32;20178;-75
2024/02/04 08:04:27;;;;;;;0.40;0.40;;;7.30;99.90;;;;;;4404330;32;20082;-75
2024/02/04 08:06:53;;;;;;;0.30;0.30;;;7.30;99.90;;;;;;4405640;32;20137;-74
2024/02/04 08:09:19;;;;;;;0.40;0.40;;;7.30;99.90;;;;;;4404415;32;20513;-75
2024/02/04 08:11:44;;;;;;;2.15;0.82;;;7.40;99.90;;;;;;4405645;32;20101;-76
2024/02/04 08:14:10;;;;;;;1.05;1.00;;;7.40;99.90;;;;;;4405637;32;20336;-74
2024/02/04 08:16:35;;;;;;;0.30;0.30;;;7.40;99.90;;;;;;4403060;32;20123;-73
2024/02/04 08:19:01;;;;;;;0.30;0.30;;;7.40;99.90;;;;;;4407913;32;20091;-74
2024/02/04 08:21:26;;;;;;;0.40;0.40;;;7.50;99.90;;;;;;4404355;32;20134;-76
2024/02/04 08:23:52;;;;;;;0.50;0.50;;;7.50;99.90;;;;;;4404857;32;20082;-77
2024/02/04 08:26:18;;;;;;;0.40;0.40;;;7.50;99.90;;;;;;4401156;32;20124;-75
2024/02/04 08:28:43;;;;;;;0.73;0.73;;;7.50;99.90;;;;;;4400540;32;20078;-76
2024/02/04 08:31:09;;;;;;;0.52;0.47;;;7.60;99.90;;;;;;4402116;32;20085;-76
2024/02/04 08:33:36;;;;;;;0.50;0.50;;;7.60;99.90;;;;;;4400608;32;20076;-77
2024/02/04 08:36:01;;;;;;;0.40;0.40;;;7.60;99.90;;;;;;4398686;32;20212;-77
2024/02/04 08:38:27;;;;;;;0.40;0.40;;;7.60;99.90;;;;;;4400270;32;21210;-77
2024/02/04 08:40:52;;;;;;;0.73;0.57;;;7.70;99.90;;;;;;4400851;32;20151;-77
2024/02/04 08:43:18;;;;;;;0.40;0.40;;;7.60;99.90;;;;;;4402697;32;20121;-77
2024/02/04 08:45:44;;;;;;;0.30;0.30;;;7.70;99.90;;;;;;4411610;32;20082;-77
2024/02/04 08:48:10;;;;;;;0.30;0.30;;;7.70;99.90;;;;;;4404558;32;20078;-77
2024/02/04 08:50:35;;;;;;;3.62;1.12;;;7.70;99.90;;;;;;4406573;32;21240;-77
2024/02/04 08:53:01;;;;;;;0.50;0.50;;;7.70;99.90;;;;;;4404822;32;20066;-76
2024/02/04 08:55:26;;;;;;;0.40;0.40;;;7.70;99.90;;;;;;4407103;32;20081;-74
2024/02/04 08:57:53;;;;;;;0.35;0.35;;;7.70;99.90;;;;;;4403257;32;20219;-76
2024/02/04 09:00:19;;;;;;;0.40;0.40;;;7.70;99.90;;;;;;4404187;32;20081;-76
2024/02/04 09:02:46;;;;;;;1.12;1.00;;;7.80;99.90;;;;;;4402900;32;20095;-77
2024/02/04 09:05:12;;;;;;;0.40;0.40;;;7.80;99.90;;;;;;4403779;32;20255;-76
2024/02/04 09:07:38;;;;;;;3.45;1.45;;;7.80;99.90;;;;;;4405896;32;20078;-77
2024/02/04 09:10:04;;;;;;;0.40;0.40;;;7.80;99.90;;;;;;4404383;32;20205;-78
2024/02/04 09:12:30;;;;;;;0.45;0.45;;;7.80;99.90;;;;;;4408549;32;20125;-79
2024/02/04 09:14:56;;;;;;;10.98;1.67;;;7.80;99.90;;;;;;4402514;32;20086;-77
2024/02/04 09:17:21;;;;;;;1.02;0.65;;;7.90;99.90;;;;;;4403940;32;20186;-77
2024/02/04 09:19:47;;;;;;;1.23;1.10;;;7.90;99.90;;;;;;4402350;32;20604;-77
2024/02/04 09:22:12;;;;;;;10.65;0.80;;;7.90;99.90;;;;;;4406647;32;20068;-78
2024/02/04 09:24:38;;;;;;;0.30;0.30;;;7.90;99.90;;;;;;4403689;32;21196;-77
2024/02/04 09:27:04;;;;;;;0.37;0.37;;;7.90;99.90;;;;;;4400671;32;20077;-77
2024/02/04 09:29:30;;;;;;;0.40;0.40;;;8.00;99.90;;;;;;4402291;32;20102;-75
2024/02/04 09:31:55;;;;;;;0.52;0.52;;;8.00;99.90;;;;;;4403787;32;20065;-75
2024/02/04 09:34:21;;;;;;;0.55;0.55;;;8.00;99.90;;;;;;4405978;32;21469;-74
2024/02/04 09:36:47;;;;;;;0.50;0.50;;;8.10;99.90;;;;;;4402768;32;20074;-76
2024/02/04 09:39:12;;;;;;;0.60;0.60;;;8.10;99.90;;;;;;4401963;32;20169;-77
2024/02/04 09:41:38;;;;;;;0.40;0.40;;;8.20;99.90;;;;;;4407132;32;20090;-74
2024/02/04 09:44:05;;;;;;;1.05;0.90;;;8.30;99.90;;;;;;4389358;32;20070;-74
2024/02/04 09:46:31;;;;;;;0.32;0.32;;;8.30;99.90;;;;;;4405328;32;20123;-78
2024/02/04 09:48:56;;;;;;;0.40;0.40;;;8.40;99.90;;;;;;4405418;32;20473;-75
2024/02/04 09:51:22;;;;;;;0.30;0.30;;;8.50;99.90;;;;;;4400001;32;20081;-73
2024/02/04 09:53:53;;;;;;;0.37;0.37;;;8.50;99.90;;;;;;4403254;32;20522;-74
2024/02/04 09:56:21;;;;;;;0.40;0.40;;;8.50;99.90;;;;;;4401727;32;21681;-76
2024/02/04 09:58:47;;;;;;;0.40;0.40;;;8.60;99.90;;;;;;4405586;32;20133;-75
2024/02/04 10:01:15;;;;;;;0.30;0.30;;;8.60;99.90;;;;;;4405909;32;20088;-75
2024/02/04 10:03:41;;;;;;;0.40;0.40;;;8.60;99.90;;;;;;4406281;32;20073;-74
2024/02/04 10:06:07;;;;;;;0.30;0.30;;;8.60;99.90;;;;;;4402811;32;20141;-75
2024/02/04 10:08:34;;;;;;;0.43;0.30;;;8.60;99.90;;;;;;4396637;32;20069;-73
2024/02/04 10:10:59;;;;;;;1.55;1.10;;;8.60;99.90;;;;;;4406285;32;20136;-73
2024/02/04 10:13:25;;;;;;;0.32;0.32;;;8.60;99.90;;;;;;4400376;32;20066;-74
2024/02/04 10:15:51;;;;;;;0.30;0.30;;;8.70;99.90;;;;;;4403895;32;20094;-75
2024/02/04 10:18:17;;;;;;;0.30;0.30;;;8.70;99.90;;;;;;4405086;32;20066;-75
2024/02/04 10:20:43;;;;;;;0.50;0.50;;;8.60;99.90;;;;;;4405001;32;20096;-77
2024/02/04 10:23:08;;;;;;;0.30;0.30;;;8.70;99.90;;;;;;4407855;32;20437;-78
2024/02/04 10:25:34;;;;;;;0.30;0.30;;;8.70;99.90;;;;;;4402826;32;20090;-76
2024/02/04 10:27:59;;;;;;;0.40;0.40;;;8.80;99.90;;;;;;4400465;32;20082;-76
2024/02/04 10:30:25;;;;;;;0.73;0.73;;;8.80;99.90;;;;;;4402563;32;20137;-77
2024/02/04 10:32:51;;;;;;;0.50;0.50;;;8.80;99.90;;;;;;4401592;32;20521;-76
2024/02/04 10:35:19;;;;;;;2.75;0.98;;;8.90;99.90;;;;;;4402336;32;20078;-76
2024/02/04 10:37:45;;;;;;;0.30;0.30;;;8.90;99.90;;;;;;4399753;32;20073;-77
2024/02/04 10:40:11;;;;;;;0.40;0.40;;;8.90;99.90;;;;;;4402398;32;20069;-79
2024/02/04 10:42:38;;;;;;;0.70;0.70;;;8.90;99.90;;;;;;4399833;32;20463;-77
2024/02/04 10:45:09;;;;;;;0.30;0.30;;;8.80;99.90;;;;;;4401847;32;20546;-78
2024/02/04 10:47:38;;;;;;;14.85;1.20;;;8.80;99.90;;;;;;4404100;32;20585;-78
2024/02/04 10:50:04;;;;;;;0.30;0.30;;;8.80;99.90;;;;;;4401733;32;20407;-78
2024/02/04 10:52:36;;;;;;;0.50;0.50;;;8.80;99.90;;;;;;4402154;32;20081;-77
2024/02/04 10:55:04;;;;;;;0.40;0.40;;;8.90;99.90;;;;;;4402243;32;20132;-78
2024/02/04 10:57:30;;;;;;;0.30;0.30;;;8.80;99.90;;;;;;4400482;32;20085;-78
2024/02/04 10:59:58;;;;;;;0.32;0.32;;;8.90;99.90;;;;;;4400918;32;21557;-78
2024/02/04 11:02:24;;;;;;;0.40;0.40;;;8.80;99.90;;;;;;4402417;32;20114;-78
2024/02/04 11:04:50;;;;;;;3.20;1.05;;;8.90;99.90;;;;;;4404206;32;20093;-78
2024/02/04 11:07:17;;;;;;;0.65;0.65;;;8.90;99.90;;;;;;4402351;32;20073;-78
2024/02/04 11:09:48;;;;;;;0.40;0.40;;;8.90;99.90;;;;;;4404052;32;20105;-78
2024/02/04 11:12:16;;;;;;;0.40;0.40;;;8.90;99.90;;;;;;4398283;32;20102;-78
2024/02/04 11:14:45;;;;;;;0.40;0.40;;;8.90;99.90;;;;;;4398468;32;20093;-79
2024/02/04 11:17:41;;;;;;;0.30;0.30;;;8.90;99.90;;;;;;4402455;32;20086;-78
2024/02/04 11:20:09;;;;;;;0.30;0.30;;;8.90;99.90;;;;;;4399473;32;20085;-78
2024/02/04 11:22:54;;;;;;;0.40;0.40;;;8.90;99.90;;;;;;4385867;32;20070;-78
2024/02/04 11:25:56;;;;;;;0.30;0.30;;;9.00;99.90;;;;;;4403005;32;20073;-78
2024/02/04 11:28:23;;;;;;;0.30;0.30;;;9.00;99.90;;;;;;4389542;32;20179;-77
2024/02/04 11:30:50;;;;;;;0.40;0.40;;;9.00;99.90;;;;;;4403749;32;20116;-75
2024/02/04 11:33:19;;;;;;;0.40;0.40;;;8.90;99.90;;;;;;4401712;32;20091;-74
2024/02/04 11:35:45;;;;;;;1.15;0.60;;;8.90;99.90;;;;;;4403526;32;20548;-73
2024/02/04 11:38:13;;;;;;;0.30;0.30;;;8.90;99.90;;;;;;4401714;32;20120;-74
2024/02/04 11:40:39;;;;;;;0.57;0.57;;;9.00;99.90;;;;;;4400471;32;20081;-73
2024/02/04 11:43:11;;;;;;;0.40;0.40;;;9.00;99.90;;;;;;4404654;32;20086;-75
2024/02/04 11:45:43;;;;;;;0.30;0.30;;;9.00;99.90;;;;;;4405169;32;20085;-74
2024/02/04 11:48:10;;;;;;;0.30;0.30;;;8.90;99.90;;;;;;4403698;32;20125;-75
2024/02/04 11:50:36;;;;;;;0.43;0.43;;;9.00;99.90;;;;;;4389815;32;20073;-75
2024/02/04 11:53:11;;;;;;;0.68;0.68;;;9.10;99.90;;;;;;4404558;32;91689;-77
2024/02/04 11:55:40;;;;;;;0.40;0.40;;;9.00;99.90;;;;;;4403825;32;20129;-76
2024/02/04 11:58:06;;;;;;;0.98;0.47;;;9.10;99.90;;;;;;4401872;32;20691;-78
2024/02/04 12:00:34;;;;;;;2.20;1.25;;;9.10;99.90;;;;;;4402219;32;20144;-76
2024/02/04 12:03:01;;;;;;;0.22;0.22;;;9.00;99.90;;;;;;4403616;32;20125;-77
2024/02/04 12:05:27;;;;;;;0.52;0.47;;;8.90;99.90;;;;;;4402662;32;20188;-75
2024/02/04 12:07:53;;;;;;;0.20;0.20;;;8.90;99.90;;;;;;4401926;32;20137;-76
2024/02/04 12:10:20;;;;;;;1.98;1.02;;;9.00;99.90;;;;;;4404351;32;20081;-75
2024/02/04 12:12:46;;;;;;;0.30;0.30;;;9.00;99.90;;;;;;4402856;32;20166;-78
2024/02/04 12:15:13;;;;;;;0.73;0.73;;;8.90;99.90;;;;;;4393574;32;20130;-76
2024/02/04 12:17:39;;;;;;;0.30;0.30;;;8.90;99.90;;;;;;4405934;32;20106;-76
2024/02/04 12:20:06;;;;;;;0.30;0.30;;;9.00;99.90;;;;;;4405613;32;20459;-76
2024/02/04 12:22:33;;;;;;;0.37;0.37;;;9.00;99.90;;;;;;4409414;32;20066;-75
2024/02/04 12:24:58;;;;;;;0.50;0.50;;;9.00;99.90;;;;;;4405188;32;20186;-75
2024/02/04 12:27:24;;;;;;;0.50;0.47;;;9.00;99.90;;;;;;4407879;32;20152;-77
2024/02/04 12:29:52;;;;;;;0.60;0.60;;;8.90;99.90;;;;;;4404289;32;20094;-75
2024/02/04 12:32:19;;;;;;;0.30;0.30;;;8.80;99.90;;;;;;4401975;32;20114;-76
2024/02/04 12:34:48;;;;;;;0.30;0.30;;;8.80;99.90;;;;;;4410040;32;20178;-76
2024/02/04 12:37:14;;;;;;;0.40;0.40;;;8.80;99.90;;;;;;4406998;32;20487;-76
2024/02/04 12:39:40;;;;;;;0.57;0.52;;;8.80;99.90;;;;;;4403946;32;20059;-75
2024/02/04 12:42:05;;;;;;;0.65;0.65;;;8.80;99.90;;;;;;4399891;32;20098;-75
2024/02/04 12:44:31;;;;;;;2.22;0.60;;;8.80;99.90;;;;;;4391857;32;20090;-75
2024/02/04 12:46:57;;;;;;;1.40;0.82;;;8.80;99.90;;;;;;4404938;32;20070;-74
2024/02/04 12:49:25;;;;;;;0.30;0.30;;;8.80;99.90;;;;;;4402556;32;20078;-74
2024/02/04 12:51:53;;;;;;;0.30;0.30;;;8.80;99.90;;;;;;4408060;32;20244;-75
2024/02/04 12:54:19;;;;;;;0.73;0.73;;;8.80;99.90;;;;;;4406337;32;20109;-75